Time;durP1;ratioP1;P1;durP2;ratioP2;P2;SDS_P1;SDS_P2;PMS_P1;PMS_P2;Temp;Humidity;BMP_temperature;BMP_pressure;BME280_temperature;BME280_humidity;BME280_pressure;Samples;Min_cycle;Max_cycle;Signal;HPM_P1;HPM_P2
2023/06/09 00:00:36;;;;;;;;;;;21.00;58.40;;;;;;5060873;28;19929;-78
2023/06/09 00:03:05;;;;;;;;;;;21.00;58.40;;;;;;5061409;28;20448;-78
2023/06/09 00:05:32;;;;;;;;;;;20.90;58.50;;;;;;5064296;28;20712;-78
2023/06/09 00:07:58;;;;;;;;;;;20.90;58.60;;;;;;5060292;28;20592;-78
2023/06/09 00:10:25;;;;;;;;;;;20.90;58.60;;;;;;5062940;28;19928;-78
2023/06/09 00:12:52;;;;;;;;;;;20.90;58.70;;;;;;5059072;28;19978;-78
2023/06/09 00:15:20;;;;;;;;;;;20.80;58.70;;;;;;5058677;28;20461;-78
2023/06/09 00:17:47;;;;;;;;;;;20.80;58.80;;;;;;5064300;28;19933;-77
2023/06/09 00:20:14;;;;;;;;;;;20.70;58.80;;;;;;5058533;28;19928;-78
2023/06/09 00:22:43;;;;;;;;;;;20.70;58.90;;;;;;5061947;28;19940;-77
2023/06/09 00:25:10;;;;;;;;;;;20.70;59.00;;;;;;5064241;28;19929;-78
2023/06/09 00:27:37;;;;;;;;;;;20.60;59.00;;;;;;5063675;28;19933;-78
2023/06/09 00:30:03;;;;;;;;;;;20.60;59.10;;;;;;5057869;28;19936;-78
2023/06/09 00:32:31;;;;;;;;;;;20.60;59.20;;;;;;5056889;28;19928;-77
2023/06/09 00:34:58;;;;;;;;;;;20.50;59.20;;;;;;5052805;28;19974;-78
2023/06/09 00:37:24;;;;;;;;;;;20.50;59.20;;;;;;5058900;28;20009;-78
2023/06/09 00:39:51;;;;;;;;;;;20.50;59.40;;;;;;5062717;28;20602;-77
2023/06/09 00:42:17;;;;;;;;;;;20.50;59.40;;;;;;5064385;28;19974;-78
2023/06/09 00:44:44;;;;;;;;;;;20.50;59.50;;;;;;5062644;28;20409;-78
2023/06/09 00:47:11;;;;;;;;;;;20.40;59.50;;;;;;5065565;28;19936;-78
2023/06/09 00:49:39;;;;;;;;;;;20.40;59.60;;;;;;5055618;28;19935;-78
2023/06/09 00:52:06;;;;;;;;;;;20.40;59.70;;;;;;5061158;28;19928;-78
2023/06/09 00:54:33;;;;;;;;;;;20.30;59.70;;;;;;5058553;28;19932;-77
2023/06/09 00:57:00;;;;;;;;;;;20.30;59.80;;;;;;5061313;28;19930;-78
2023/06/09 00:59:28;;;;;;;;;;;20.30;59.90;;;;;;5061129;28;19949;-78
2023/06/09 01:01:54;;;;;;;;;;;20.30;60.00;;;;;;5059267;28;19929;-78
2023/06/09 01:04:21;;;;;;;;;;;20.20;60.00;;;;;;5049926;28;19929;-77
2023/06/09 01:06:56;;;;;;;;;;;20.20;60.10;;;;;;5064041;28;19935;-78
2023/06/09 01:09:26;;;;;;;;;;;20.20;60.20;;;;;;5060153;28;19964;-78
2023/06/09 01:12:00;;;;;;;;;;;20.20;60.30;;;;;;5065934;28;19937;-77
2023/06/09 01:14:29;;;;;;;;;;;20.10;60.30;;;;;;5055286;28;20030;-77
2023/06/09 01:17:07;;;;;;;;;;;20.10;60.50;;;;;;5062585;28;19982;-77
2023/06/09 01:19:39;;;;;;;;;;;20.00;60.50;;;;;;5056179;28;19959;-78
2023/06/09 01:22:12;;;;;;;;;;;20.00;60.60;;;;;;5055156;28;20027;-78
2023/06/09 01:24:46;;;;;;;;;;;20.00;60.60;;;;;;5060693;28;19928;-77
2023/06/09 01:27:15;;;;;;;;;;;20.00;60.80;;;;;;5059105;28;19933;-78
2023/06/09 01:29:43;;;;;;;;;;;19.90;60.80;;;;;;5059369;28;19928;-77
2023/06/09 01:32:10;;;;;;;;;;;19.90;60.90;;;;;;5059391;28;19950;-77
2023/06/09 01:34:37;;;;;;;;;;;19.90;61.00;;;;;;5057742;28;20001;-78
2023/06/09 01:37:03;;;;;;;;;;;19.90;61.00;;;;;;5061080;28;19940;-77
2023/06/09 01:39:30;;;;;;;;;;;19.80;61.10;;;;;;5058876;28;19924;-78
2023/06/09 01:41:56;;;;;;;;;;;19.80;61.10;;;;;;5066162;28;20304;-77
2023/06/09 01:44:24;;;;;;;;;;;19.80;61.20;;;;;;5060365;28;19978;-78
2023/06/09 01:46:51;;;;;;;;;;;19.80;61.20;;;;;;5058751;28;19939;-78
2023/06/09 01:49:22;;;;;;;;;;;19.70;61.20;;;;;;5056417;28;20045;-77
2023/06/09 01:51:51;;;;;;;;;;;19.60;61.30;;;;;;5060887;28;19937;-78
2023/06/09 01:54:21;;;;;;;;;;;19.60;61.40;;;;;;5061444;28;19928;-77
2023/06/09 01:56:52;;;;;;;;;;;19.60;61.50;;;;;;5058658;28;19974;-77
2023/06/09 01:59:20;;;;;;;;;;;19.60;61.50;;;;;;5065894;28;20365;-77
2023/06/09 02:01:48;;;;;;;;;;;19.60;61.60;;;;;;5064229;28;19936;-78
2023/06/09 02:04:15;;;;;;;;;;;19.60;62.40;;;;;;5058714;28;19928;-77
2023/06/09 02:06:42;;;;;;;;;;;19.50;61.70;;;;;;5067806;28;19924;-77
2023/06/09 02:09:10;;;;;;;;;;;19.50;61.80;;;;;;5056214;28;19958;-77
2023/06/09 02:11:37;;;;;;;;;;;19.40;61.80;;;;;;5062846;28;19928;-77
2023/06/09 02:14:03;;;;;;;;;;;19.40;61.90;;;;;;5054555;28;19928;-77
2023/06/09 02:16:30;;;;;;;;;;;19.40;62.00;;;;;;5055156;28;20807;-77
2023/06/09 02:18:58;;;;;;;;;;;19.40;62.00;;;;;;5054813;28;20101;-77
2023/06/09 02:21:24;;;;;;;;;;;19.40;62.20;;;;;;5063887;28;20034;-77
2023/06/09 02:23:51;;;;;;;;;;;19.30;62.10;;;;;;5058532;28;19936;-77
2023/06/09 02:26:17;;;;;;;;;;;19.30;62.30;;;;;;5056234;28;19935;-77
2023/06/09 02:28:44;;;;;;;;;;;19.30;62.30;;;;;;5060841;28;19997;-77
2023/06/09 02:31:10;;;;;;;;;;;19.20;63.10;;;;;;5059560;28;20406;-77
2023/06/09 02:33:37;;;;;;;;;;;19.20;62.40;;;;;;5058734;28;19936;-77
2023/06/09 02:36:05;;;;;;;;;;;19.20;62.50;;;;;;5057000;28;19932;-77
2023/06/09 02:38:32;;;;;;;;;;;19.10;62.50;;;;;;5063348;28;19928;-77
2023/06/09 02:40:58;;;;;;;;;;;19.10;62.70;;;;;;5063820;28;19987;-77
2023/06/09 02:43:25;;;;;;;;;;;19.10;62.70;;;;;;5058012;28;19932;-77
2023/06/09 02:45:51;;;;;;;;;;;19.10;62.90;;;;;;5061257;28;19928;-77
2023/06/09 02:48:18;;;;;;;;;;;19.00;62.90;;;;;;5062261;28;19932;-77
2023/06/09 02:50:44;;;;;;;;;;;19.00;62.90;;;;;;5055355;28;19948;-77
2023/06/09 02:53:12;;;;;;;;;;;19.00;63.00;;;;;;5059623;28;20348;-77
2023/06/09 02:55:39;;;;;;;;;;;19.00;63.10;;;;;;5064379;28;20294;-77
2023/06/09 02:58:05;;;;;;;;;;;19.00;63.20;;;;;;5057532;28;19935;-77
2023/06/09 03:00:32;;;;;;;;;;;19.00;63.30;;;;;;5062462;28;19924;-78
2023/06/09 03:03:01;;;;;;;;;;;18.90;63.30;;;;;;5061253;28;20015;-77
2023/06/09 03:05:28;;;;;;;;;;;18.90;63.40;;;;;;5054060;28;19929;-77
2023/06/09 03:07:54;;;;;;;;;;;18.90;63.50;;;;;;5064571;28;19994;-77
2023/06/09 03:10:22;;;;;;;;;;;18.80;63.50;;;;;;5057453;28;19924;-77
2023/06/09 03:12:49;;;;;;;;;;;18.80;63.70;;;;;;5059790;28;19959;-77
2023/06/09 03:15:16;;;;;;;;;;;18.80;63.60;;;;;;5060423;28;20409;-77
2023/06/09 03:17:43;;;;;;;;;;;18.80;63.70;;;;;;5062018;28;20754;-77
2023/06/09 03:20:10;;;;;;;;;;;18.70;63.80;;;;;;5060887;28;20010;-77
2023/06/09 03:22:37;;;;;;;;;;;18.70;63.80;;;;;;5064452;28;19924;-78
2023/06/09 03:25:04;;;;;;;;;;;18.70;63.90;;;;;;5064334;28;20015;-77
2023/06/09 03:27:31;;;;;;;;;;;18.60;63.90;;;;;;5063365;28;20676;-77
2023/06/09 03:29:58;;;;;;;;;;;18.60;63.90;;;;;;5062647;28;20007;-77
2023/06/09 03:32:24;;;;;;;;;;;18.60;64.00;;;;;;5063492;28;19936;-77
2023/06/09 03:34:52;;;;;;;;;;;18.60;64.10;;;;;;5066806;28;19935;-77
2023/06/09 03:37:19;;;;;;;;;;;18.60;65.00;;;;;;5064756;28;19936;-77
2023/06/09 03:39:45;;;;;;;;;;;18.50;64.20;;;;;;5063771;28;19974;-78
2023/06/09 03:42:12;;;;;;;;;;;18.50;64.20;;;;;;5063513;28;19929;-77
2023/06/09 03:44:40;;;;;;;;;;;18.50;64.40;;;;;;5063948;28;19928;-77
2023/06/09 03:47:09;;;;;;;;;;;18.50;64.50;;;;;;5059204;28;20387;-77
2023/06/09 03:49:36;;;;;;;;;;;18.50;64.60;;;;;;5060212;28;20047;-77
2023/06/09 03:52:02;;;;;;;;;;;18.40;64.70;;;;;;5064092;28;20425;-77
2023/06/09 03:54:30;;;;;;;;;;;18.40;64.70;;;;;;5063949;28;19932;-77
2023/06/09 03:56:56;;;;;;;;;;;18.40;64.80;;;;;;5062419;28;20019;-77
2023/06/09 03:59:23;;;;;;;;;;;18.30;64.90;;;;;;5068985;28;19974;-77
2023/06/09 04:01:51;;;;;;;;;;;18.30;65.20;;;;;;5062454;28;20365;-77
2023/06/09 04:04:17;;;;;;;;;;;18.30;65.20;;;;;;5064154;28;19928;-77
2023/06/09 04:06:45;;;;;;;;;;;18.30;65.30;;;;;;5064497;28;19928;-77
2023/06/09 04:09:12;;;;;;;;;;;18.30;65.40;;;;;;5064532;28;19936;-77
2023/06/09 04:11:39;;;;;;;;;;;18.20;65.50;;;;;;5065237;28;19929;-76
2023/06/09 04:14:06;;;;;;;;;;;18.20;65.60;;;;;;5055854;28;20039;-77
2023/06/09 04:16:32;;;;;;;;;;;18.20;65.70;;;;;;5063008;28;20001;-77
2023/06/09 04:19:00;;;;;;;;;;;18.20;65.80;;;;;;5054537;28;19929;-77
2023/06/09 04:21:27;;;;;;;;;;;18.20;65.90;;;;;;5061663;28;20345;-77
2023/06/09 04:23:54;;;;;;;;;;;18.20;66.00;;;;;;5060107;28;19957;-77
2023/06/09 04:26:21;;;;;;;;;;;18.20;66.10;;;;;;5063439;28;20323;-77
2023/06/09 04:28:48;;;;;;;;;;;18.20;66.10;;;;;;5061231;28;19972;-77
2023/06/09 04:31:18;;;;;;;;;;;18.10;66.20;;;;;;5058487;28;19928;-77
2023/06/09 04:33:46;;;;;;;;;;;18.10;66.30;;;;;;5054775;28;19924;-77
2023/06/09 04:36:16;;;;;;;;;;;18.10;66.40;;;;;;5055725;28;19990;-77
2023/06/09 04:38:45;;;;;;;;;;;18.00;66.40;;;;;;5060950;28;20386;-77
2023/06/09 04:41:11;;;;;;;;;;;18.10;66.60;;;;;;5063148;28;19932;-76
2023/06/09 04:43:39;;;;;;;;;;;18.10;66.60;;;;;;5054624;28;19924;-77
2023/06/09 04:46:06;;;;;;;;;;;18.00;66.60;;;;;;5058166;28;19925;-78
2023/06/09 04:48:34;;;;;;;;;;;18.00;66.70;;;;;;5059176;28;19970;-77
2023/06/09 04:51:01;;;;;;;;;;;18.00;66.80;;;;;;5053481;28;19978;-77
2023/06/09 04:53:29;;;;;;;;;;;18.00;67.00;;;;;;5060101;28;20031;-77
2023/06/09 04:55:55;;;;;;;;;;;18.00;67.00;;;;;;5063387;28;19935;-77
2023/06/09 04:58:23;;;;;;;;;;;17.90;67.00;;;;;;5060740;28;19933;-77
2023/06/09 05:00:50;;;;;;;;;;;17.90;67.10;;;;;;5054519;28;19974;-77
2023/06/09 05:03:17;;;;;;;;;;;17.90;67.30;;;;;;5056161;28;20025;-77
2023/06/09 05:05:44;;;;;;;;;;;17.90;67.40;;;;;;5058696;28;20448;-77
2023/06/09 05:08:11;;;;;;;;;;;17.90;67.40;;;;;;5053188;28;20856;-77
2023/06/09 05:10:39;;;;;;;;;;;17.90;67.50;;;;;;5059751;28;19928;-77
2023/06/09 05:13:05;;;;;;;;;;;17.90;67.60;;;;;;5053303;28;19939;-76
2023/06/09 05:15:32;;;;;;;;;;;17.90;67.70;;;;;;5061273;28;19938;-77
2023/06/09 05:17:58;;;;;;;;;;;17.90;67.70;;;;;;5062273;28;19957;-77
2023/06/09 05:20:25;;;;;;;;;;;17.90;67.80;;;;;;5051932;28;19929;-77
2023/06/09 05:22:51;;;;;;;;;;;17.90;67.80;;;;;;5059849;28;19990;-76
2023/06/09 05:25:19;;;;;;;;;;;17.90;67.90;;;;;;5057298;28;19936;-77
2023/06/09 05:27:46;;;;;;;;;;;17.90;67.90;;;;;;5054420;28;20024;-77
2023/06/09 05:30:13;;;;;;;;;;;17.90;68.10;;;;;;5054495;28;19932;-77
2023/06/09 05:32:40;;;;;;;;;;;17.90;68.30;;;;;;5055998;28;20367;-77
2023/06/09 05:35:06;;;;;;;;;;;17.90;68.30;;;;;;5055821;28;19936;-77
2023/06/09 05:37:33;;;;;;;;;;;17.90;68.30;;;;;;5045006;28;20051;-72
2023/06/09 05:39:59;;;;;;;;;;;17.90;68.60;;;;;;5067009;28;20328;-72
2023/06/09 05:42:26;;;;;;;;;;;17.90;68.80;;;;;;5056606;28;19932;-72
2023/06/09 05:44:54;;;;;;;;;;;17.90;68.90;;;;;;5063147;28;19928;-72
2023/06/09 05:47:20;;;;;;;;;;;17.90;68.80;;;;;;5054353;28;19925;-71
2023/06/09 05:49:47;;;;;;;;;;;18.00;69.00;;;;;;5064109;28;20014;-70
2023/06/09 05:52:13;;;;;;;;;;;18.00;68.90;;;;;;5060452;28;19929;-72
2023/06/09 05:54:40;;;;;;;;;;;18.00;69.10;;;;;;5056447;28;20033;-72
2023/06/09 05:57:07;;;;;;;;;;;18.00;69.10;;;;;;5052864;28;20378;-71
2023/06/09 05:59:34;;;;;;;;;;;18.00;69.20;;;;;;5056538;28;20324;-71
2023/06/09 06:02:02;;;;;;;;;;;18.00;69.30;;;;;;5060668;28;20031;-72
2023/06/09 06:04:29;;;;;;;;;;;18.00;69.50;;;;;;5057524;28;19944;-71
2023/06/09 06:06:55;;;;;;;;;;;18.00;69.60;;;;;;5063011;28;19932;-71
2023/06/09 06:09:22;;;;;;;;;;;18.10;69.60;;;;;;5061627;28;19932;-71
2023/06/09 06:11:49;;;;;;;;;;;18.10;69.90;;;;;;5066697;28;19939;-71
2023/06/09 06:14:15;;;;;;;;;;;18.10;69.80;;;;;;5052674;28;20002;-70
2023/06/09 06:16:42;;;;;;;;;;;18.10;69.80;;;;;;5056098;28;19943;-71
2023/06/09 06:19:11;;;;;;;;;;;18.10;69.80;;;;;;5060533;28;20451;-72
2023/06/09 06:21:41;;;;;;;;;;;18.20;69.90;;;;;;5059137;28;19929;-71
2023/06/09 06:24:07;;;;;;;;;;;18.20;70.10;;;;;;5059387;28;19928;-71
2023/06/09 06:26:34;;;;;;;;;;;18.20;70.00;;;;;;5064039;28;19929;-72
2023/06/09 06:29:01;;;;;;;;;;;18.20;70.10;;;;;;5066296;28;19936;-71
2023/06/09 06:31:29;;;;;;;;;;;18.20;70.20;;;;;;5054418;28;20578;-72
2023/06/09 06:33:55;;;;;;;;;;;18.20;70.00;;;;;;5061161;28;19936;-72
2023/06/09 06:36:23;;;;;;;;;;;18.20;70.10;;;;;;5067042;28;19928;-72
2023/06/09 06:38:50;;;;;;;;;;;18.30;70.30;;;;;;5061786;28;19948;-72
2023/06/09 06:41:16;;;;;;;;;;;18.30;70.50;;;;;;5062638;28;20448;-70
2023/06/09 06:43:43;;;;;;;;;;;18.30;70.60;;;;;;5064999;28;19928;-71
2023/06/09 06:46:11;;;;;;;;;;;18.30;70.60;;;;;;5064741;28;19978;-72
2023/06/09 06:48:38;;;;;;;;;;;18.40;70.70;;;;;;5059700;28;19933;-72
2023/06/09 06:51:06;;;;;;;;;;;18.40;70.80;;;;;;5059836;28;19928;-72
2023/06/09 06:53:34;;;;;;;;;;;18.40;71.00;;;;;;5067355;28;20011;-72
2023/06/09 06:56:01;;;;;;;;;;;18.50;71.00;;;;;;5064248;28;19932;-72
2023/06/09 06:58:28;;;;;;;;;;;18.40;71.10;;;;;;5072200;28;20479;-72
2023/06/09 07:00:55;;;;;;;;;;;18.40;71.10;;;;;;5069319;28;19974;-71
2023/06/09 07:03:23;;;;;;;;;;;18.40;71.10;;;;;;5070482;28;19929;-72
2023/06/09 07:05:50;;;;;;;;;;;18.50;71.10;;;;;;5062302;28;19968;-72
2023/06/09 07:08:17;;;;;;;;;;;18.50;71.20;;;;;;5061972;28;19928;-70
2023/06/09 07:10:45;;;;;;;;;;;18.60;71.50;;;;;;5064240;28;19928;-71
2023/06/09 07:13:11;;;;;;;;;;;18.60;71.30;;;;;;5061018;28;20608;-70
2023/06/09 07:15:38;;;;;;;;;;;18.60;71.20;;;;;;5060198;28;19928;-72
2023/06/09 07:18:05;;;;;;;;;;;18.70;71.50;;;;;;5070644;28;20359;-71
2023/06/09 07:20:32;;;;;;;;;;;18.70;71.40;;;;;;5063450;28;20399;-70
2023/06/09 07:22:59;;;;;;;;;;;18.70;71.40;;;;;;5059357;28;20370;-69
2023/06/09 07:25:26;;;;;;;;;;;18.70;71.70;;;;;;5062817;28;19933;-71
2023/06/09 07:27:54;;;;;;;;;;;18.70;71.60;;;;;;5068719;28;19928;-71
2023/06/09 07:30:21;;;;;;;;;;;18.80;71.70;;;;;;5060339;28;19998;-72
2023/06/09 07:32:47;;;;;;;;;;;18.80;71.70;;;;;;5064315;28;19932;-72
2023/06/09 07:35:14;;;;;;;;;;;18.80;71.90;;;;;;5065373;28;20006;-71
2023/06/09 07:37:42;;;;;;;;;;;18.80;71.90;;;;;;5061549;28;19940;-72
2023/06/09 07:40:09;;;;;;;;;;;18.90;72.00;;;;;;5064269;28;19928;-72
2023/06/09 07:42:36;;;;;;;;;;;18.90;71.90;;;;;;5063436;28;19928;-71
2023/06/09 07:45:04;;;;;;;;;;;18.90;72.10;;;;;;5062152;28;19936;-72
2023/06/09 07:47:30;;;;;;;;;;;18.90;72.00;;;;;;5071294;28;19934;-72
2023/06/09 07:49:57;;;;;;;;;;;19.00;72.80;;;;;;5062921;28;20375;-72
2023/06/09 07:52:25;;;;;;;;;;;19.00;72.10;;;;;;5062158;28;19928;-72
2023/06/09 07:54:51;;;;;;;;;;;19.10;72.20;;;;;;5068845;28;20432;-72
2023/06/09 07:57:18;;;;;;;;;;;19.10;72.10;;;;;;5068278;28;19929;-71
2023/06/09 07:59:45;;;;;;;;;;;19.10;72.00;;;;;;5064029;28;19933;-70
2023/06/09 08:02:13;;;;;;;;;;;19.10;72.10;;;;;;5068003;28;19934;-71
2023/06/09 08:04:41;;;;;;;;;;;19.20;72.10;;;;;;5060052;28;19937;-72
2023/06/09 08:07:08;;;;;;;;;;;19.20;72.10;;;;;;5064484;28;19978;-72
2023/06/09 08:09:34;;;;;;;;;;;19.30;72.30;;;;;;5062937;28;19951;-71
2023/06/09 08:12:01;;;;;;;;;;;19.30;72.10;;;;;;5059538;28;19925;-73
2023/06/09 08:14:27;;;;;;;;;;;19.30;72.00;;;;;;5060025;28;19993;-72
2023/06/09 08:16:54;;;;;;;;;;;19.30;71.90;;;;;;5063503;28;19928;-72
2023/06/09 08:19:22;;;;;;;;;;;19.40;72.20;;;;;;5067783;28;19955;-71
2023/06/09 08:21:48;;;;;;;;;;;19.40;72.30;;;;;;5068984;28;19929;-72
2023/06/09 08:24:15;;;;;;;;;;;19.50;72.40;;;;;;5073224;28;20388;-72
2023/06/09 08:26:43;;;;;;;;;;;19.50;72.20;;;;;;5073691;28;19947;-72
2023/06/09 08:29:10;;;;;;;;;;;19.60;72.20;;;;;;5060908;28;19995;-71
2023/06/09 08:31:39;;;;;;;;;;;19.60;72.10;;;;;;5055803;28;19932;-71
2023/06/09 08:34:05;;;;;;;;;;;19.70;72.10;;;;;;5064844;28;19929;-71
2023/06/09 08:36:33;;;;;;;;;;;19.70;72.00;;;;;;5066012;28;19928;-72
2023/06/09 08:39:00;;;;;;;;;;;19.70;71.80;;;;;;5062408;28;19986;-71
2023/06/09 08:41:28;;;;;;;;;;;19.70;71.70;;;;;;5060715;28;19964;-72
2023/06/09 08:43:55;;;;;;;;;;;19.80;71.90;;;;;;5053308;28;19933;-72
2023/06/09 08:46:22;;;;;;;;;;;19.80;71.70;;;;;;5066175;28;19928;-72
2023/06/09 08:48:50;;;;;;;;;;;19.90;71.70;;;;;;5065503;28;19935;-72
2023/06/09 08:51:17;;;;;;;;;;;19.90;71.70;;;;;;5068123;28;20001;-71
2023/06/09 08:53:45;;;;;;;;;;;20.00;71.50;;;;;;5066206;28;19957;-70
2023/06/09 08:56:11;;;;;;;;;;;20.10;71.20;;;;;;5071087;28;19928;-73
2023/06/09 08:58:39;;;;;;;;;;;20.10;71.00;;;;;;5065331;28;20013;-71
2023/06/09 09:01:06;;;;;;;;;;;20.10;70.80;;;;;;5066875;28;19928;-71
2023/06/09 09:03:33;;;;;;;;;;;20.20;70.60;;;;;;5065442;28;19932;-71
2023/06/09 09:05:59;;;;;;;;;;;20.20;70.40;;;;;;5058781;28;20023;-70
2023/06/09 09:08:26;;;;;;;;;;;20.20;70.30;;;;;;5066992;28;19928;-71
2023/06/09 09:10:54;;;;;;;;;;;20.30;69.90;;;;;;5065513;28;19977;-71
2023/06/09 09:13:24;;;;;;;;;;;20.40;69.90;;;;;;5060009;28;19940;-70
2023/06/09 09:15:51;;;;;;;;;;;20.40;69.70;;;;;;5065074;28;20014;-72
2023/06/09 09:18:19;;;;;;;;;;;20.40;69.70;;;;;;5061175;28;19937;-71
2023/06/09 09:20:46;;;;;;;;;;;20.50;69.40;;;;;;5059840;28;19935;-72
2023/06/09 09:23:12;;;;;;;;;;;20.50;69.10;;;;;;5055494;28;19929;-71
2023/06/09 09:25:39;;;;;;;;;;;20.60;69.00;;;;;;5061440;28;19932;-72
2023/06/09 09:28:08;;;;;;;;;;;20.60;68.80;;;;;;5071786;28;19928;-72
2023/06/09 09:30:41;;;;;;;;;;;20.70;68.80;;;;;;5058887;28;20413;-72
2023/06/09 09:33:08;;;;;;;;;;;20.80;68.70;;;;;;5056829;28;19978;-71
2023/06/09 09:35:36;;;;;;;;;;;20.80;68.50;;;;;;5064830;28;19939;-71
2023/06/09 09:38:03;;;;;;;;;;;20.90;68.30;;;;;;5063190;28;20309;-71
2023/06/09 09:40:29;;;;;;;;;;;20.90;68.00;;;;;;5056353;28;20406;-72
2023/06/09 09:42:59;;;;;;;;;;;21.00;67.90;;;;;;5061172;28;19925;-71
2023/06/09 09:45:29;;;;;;;;;;;21.10;67.70;;;;;;5062227;28;20569;-71
2023/06/09 09:48:06;;;;;;;;;;;21.10;67.40;;;;;;5063858;28;19924;-71
2023/06/09 09:50:35;;;;;;;;;;;21.20;67.20;;;;;;5063673;28;20585;-71
2023/06/09 09:53:03;;;;;;;;;;;21.30;67.10;;;;;;5061508;28;19951;-72
2023/06/09 09:55:29;;;;;;;;;;;21.40;67.00;;;;;;5068957;28;19924;-71
2023/06/09 09:57:57;;;;;;;;;;;21.40;66.60;;;;;;5063698;28;19925;-71
2023/06/09 10:00:24;;;;;;;;;;;21.50;66.30;;;;;;5067605;28;19936;-75
2023/06/09 10:02:54;;;;;;;;;;;21.60;66.10;;;;;;5065535;28;19931;-71
2023/06/09 10:05:21;;;;;;;;;;;21.70;66.10;;;;;;5063267;28;20324;-70
2023/06/09 10:07:51;;;;;;;;;;;21.70;66.00;;;;;;5064016;28;19928;-72
2023/06/09 10:10:18;;;;;;;;;;;21.80;65.80;;;;;;5071351;28;19929;-69
2023/06/09 10:12:45;;;;;;;;;;;21.90;65.50;;;;;;5076005;28;19958;-72
2023/06/09 10:15:12;;;;;;;;;;;22.00;65.30;;;;;;5068530;28;19928;-72
2023/06/09 10:17:42;;;;;;;;;;;22.10;64.90;;;;;;5070409;28;19982;-73
2023/06/09 10:20:10;;;;;;;;;;;22.10;64.60;;;;;;5071292;28;20348;-72
2023/06/09 10:22:37;;;;;;;;;;;22.20;64.40;;;;;;5066408;28;20307;-72
2023/06/09 10:25:04;;;;;;;;;;;22.30;64.30;;;;;;5071662;28;19928;-72
2023/06/09 10:27:31;;;;;;;;;;;22.40;64.00;;;;;;5071670;28;20348;-72
2023/06/09 10:29:57;;;;;;;;;;;22.40;63.60;;;;;;5067288;28;19982;-72
2023/06/09 10:32:26;;;;;;;;;;;22.50;63.20;;;;;;5068425;28;19928;-72
2023/06/09 10:34:53;;;;;;;;;;;22.60;63.20;;;;;;5068052;28;19990;-72
2023/06/09 10:37:28;;;;;;;;;;;22.70;63.10;;;;;;5072999;28;19925;-71
2023/06/09 10:39:56;;;;;;;;;;;22.80;63.10;;;;;;5064399;28;19928;-72
2023/06/09 10:42:28;;;;;;;;;;;22.80;62.80;;;;;;5065874;28;19983;-72
2023/06/09 10:44:59;;;;;;;;;;;22.90;62.50;;;;;;5068856;28;19928;-72
2023/06/09 10:47:47;;;;;;;;;;;23.00;62.30;;;;;;5071050;28;20067;-72
2023/06/09 10:50:23;;;;;;;;;;;23.10;62.10;;;;;;5065494;28;19928;-72
2023/06/09 10:52:53;;;;;;;;;;;23.20;61.90;;;;;;5067420;28;19969;-72
2023/06/09 10:55:21;;;;;;;;;;;23.30;61.70;;;;;;5073291;28;19929;-72
2023/06/09 10:57:48;;;;;;;;;;;23.40;61.40;;;;;;5064241;28;20024;-72
2023/06/09 11:00:15;;;;;;;;;;;23.40;61.20;;;;;;5077933;28;19938;-72
2023/06/09 11:02:46;;;;;;;;;;;23.50;61.10;;;;;;5073431;28;19968;-72
2023/06/09 11:05:13;;;;;;;;;;;23.50;60.60;;;;;;5059476;28;20310;-70
2023/06/09 11:07:41;;;;;;;;;;;23.60;60.30;;;;;;5071090;28;19928;-72
2023/06/09 11:10:26;;;;;;;;;;;23.70;60.20;;;;;;5072723;28;20318;-71
2023/06/09 11:12:53;;;;;;;;;;;23.80;59.70;;;;;;5074043;28;19995;-72
2023/06/09 11:15:20;;;;;;;;;;;23.80;59.50;;;;;;5052430;28;20412;-72
2023/06/09 11:17:47;;;;;;;;;;;23.90;59.40;;;;;;5076545;28;19960;-69
2023/06/09 11:20:15;;;;;;;;;;;24.00;59.20;;;;;;5066770;28;20436;-72
2023/06/09 11:22:59;;;;;;;;;;;24.00;59.10;;;;;;5067250;28;20327;-71
2023/06/09 11:25:42;;;;;;;;;;;24.10;59.00;;;;;;5072291;28;19931;-72
2023/06/09 11:28:19;;;;;;;;;;;24.20;58.90;;;;;;5065887;28;19928;-71
2023/06/09 11:31:02;;;;;;;;;;;24.30;58.60;;;;;;5062555;28;20264;-71
2023/06/09 11:33:43;;;;;;;;;;;24.30;58.40;;;;;;5062630;28;19928;-72
2023/06/09 11:36:11;;;;;;;;;;;24.40;58.30;;;;;;5067681;28;20346;-72
2023/06/09 11:38:38;;;;;;;;;;;24.40;58.10;;;;;;5064317;28;19928;-71
2023/06/09 11:41:09;;;;;;;;;;;24.50;58.10;;;;;;5062875;28;19924;-72
2023/06/09 11:43:36;;;;;;;;;;;24.50;57.90;;;;;;5063130;28;19936;-71
2023/06/09 11:46:03;;;;;;;;;;;24.50;57.70;;;;;;5068575;28;20351;-72
2023/06/09 11:48:30;;;;;;;;;;;24.50;57.40;;;;;;5065354;28;20413;-72
2023/06/09 11:50:57;;;;;;;;;;;24.50;57.20;;;;;;5066298;28;19927;-72
2023/06/09 11:53:25;;;;;;;;;;;24.70;57.30;;;;;;5062151;28;19959;-69
2023/06/09 11:55:57;;;;;;;;;;;24.70;57.00;;;;;;5071740;28;19935;-70
2023/06/09 11:58:25;;;;;;;;;;;24.80;56.90;;;;;;5059117;28;19998;-71
2023/06/09 12:00:52;;;;;;;;;;;24.90;56.80;;;;;;5071611;28;19977;-70
2023/06/09 12:03:19;;;;;;;;;;;24.90;56.40;;;;;;5066850;28;19944;-72
2023/06/09 12:05:48;;;;;;;;;;;25.00;56.30;;;;;;5062510;28;20027;-71
2023/06/09 12:08:15;;;;;;;;;;;25.10;56.10;;;;;;5062123;28;19935;-72
2023/06/09 12:10:41;;;;;;;;;;;25.10;56.00;;;;;;5063550;28;20291;-72
2023/06/09 12:13:08;;;;;;;;;;;25.20;55.70;;;;;;5064113;28;19928;-70
2023/06/09 12:15:36;;;;;;;;;;;25.20;55.40;;;;;;5059539;28;19929;-72
2023/06/09 12:18:03;;;;;;;;;;;25.30;55.30;;;;;;5069647;28;19928;-72
2023/06/09 12:20:31;;;;;;;;;;;25.30;55.30;;;;;;5063354;28;19932;-72
2023/06/09 12:22:58;;;;;;;;;;;25.30;55.20;;;;;;5068810;28;19928;-72
2023/06/09 12:25:26;;;;;;;;;;;25.40;54.90;;;;;;5060635;28;20010;-71
2023/06/09 12:27:52;;;;;;;;;;;25.50;54.70;;;;;;5068139;28;20420;-72
2023/06/09 12:30:32;;;;;;;;;;;25.50;54.70;;;;;;5055183;28;19936;-72
2023/06/09 12:33:03;;;;;;;;;;;25.60;55.00;;;;;;5062893;28;19935;-72
2023/06/09 12:35:36;;;;;;;;;;;25.60;54.60;;;;;;5067338;28;19932;-74
2023/06/09 12:38:09;;;;;;;;;;;25.60;54.30;;;;;;5060308;28;19990;-73
2023/06/09 12:40:47;;;;;;;;;;;25.70;54.40;;;;;;5070973;28;19932;-73
2023/06/09 12:43:13;;;;;;;;;;;25.70;54.20;;;;;;5062708;28;20475;-73
2023/06/09 12:45:41;;;;;;;;;;;25.80;54.20;;;;;;5067823;28;19933;-73
2023/06/09 12:48:09;;;;;;;;;;;25.80;54.00;;;;;;5066931;28;19982;-72
2023/06/09 12:50:36;;;;;;;;;;;25.90;53.90;;;;;;5053092;28;19943;-72
2023/06/09 12:53:03;;;;;;;;;;;25.90;53.70;;;;;;5061651;28;19965;-73
2023/06/09 12:55:29;;;;;;;;;;;25.90;53.90;;;;;;5056735;28;19983;-72
2023/06/09 12:57:56;;;;;;;;;;;26.00;53.70;;;;;;5066242;28;19947;-72
2023/06/09 13:00:22;;;;;;;;;;;26.00;53.60;;;;;;5072616;28;20353;-72
2023/06/09 13:02:49;;;;;;;;;;;26.00;53.30;;;;;;5063468;28;20313;-72
2023/06/09 13:05:17;;;;;;;;;;;26.00;53.30;;;;;;5062921;28;19928;-72
2023/06/09 13:07:43;;;;;;;;;;;26.10;53.20;;;;;;5064363;28;19982;-72
2023/06/09 13:10:10;;;;;;;;;;;26.10;53.10;;;;;;5061805;28;20303;-72
2023/06/09 13:12:37;;;;;;;;;;;26.20;52.90;;;;;;5062421;28;19935;-73
2023/06/09 13:15:03;;;;;;;;;;;26.20;52.50;;;;;;5056909;28;19928;-72
2023/06/09 13:17:30;;;;;;;;;;;26.30;52.60;;;;;;5062840;28;19932;-73
2023/06/09 13:19:56;;;;;;;;;;;26.30;52.50;;;;;;5060536;28;19963;-73
2023/06/09 13:22:24;;;;;;;;;;;26.40;52.30;;;;;;5065737;28;19929;-72
2023/06/09 13:24:51;;;;;;;;;;;26.40;52.10;;;;;;5068652;28;19932;-72
2023/06/09 13:27:17;;;;;;;;;;;26.50;51.80;;;;;;5065393;28;19936;-72
2023/06/09 13:29:44;;;;;;;;;;;26.60;51.70;;;;;;5054250;28;19929;-73
2023/06/09 13:32:10;;;;;;;;;;;26.60;51.60;;;;;;5065309;28;19932;-72
2023/06/09 13:34:37;;;;;;;;;;;26.70;51.40;;;;;;5060789;28;19929;-73
2023/06/09 13:37:04;;;;;;;;;;;26.80;51.40;;;;;;5066656;28;19928;-72
2023/06/09 13:39:32;;;;;;;;;;;26.80;51.10;;;;;;5058571;28;19958;-70
2023/06/09 13:41:58;;;;;;;;;;;26.90;50.60;;;;;;5058413;28;20425;-73
2023/06/09 13:44:25;;;;;;;;;;;26.90;50.30;;;;;;5054771;28;20388;-73
2023/06/09 13:46:51;;;;;;;;;;;27.00;50.40;;;;;;5057304;28;19928;-73
2023/06/09 13:49:18;;;;;;;;;;;27.10;50.40;;;;;;5066887;28;19928;-73
2023/06/09 13:51:44;;;;;;;;;;;27.10;50.00;;;;;;5062872;28;19982;-72
2023/06/09 13:54:11;;;;;;;;;;;27.20;50.20;;;;;;5055134;28;19951;-73
2023/06/09 13:56:39;;;;;;;;;;;27.30;50.20;;;;;;5064396;28;20495;-73
2023/06/09 13:59:06;;;;;;;;;;;27.30;50.00;;;;;;5069201;28;19928;-73
2023/06/09 14:01:33;;;;;;;;;;;27.40;49.80;;;;;;5058631;28;19936;-72
2023/06/09 14:04:00;;;;;;;;;;;27.40;49.60;;;;;;5070629;28;20706;-73
2023/06/09 14:06:26;;;;;;;;;;;27.50;49.60;;;;;;5055906;28;19936;-71
2023/06/09 14:08:53;;;;;;;;;;;27.50;49.50;;;;;;5071361;28;20373;-72
2023/06/09 14:11:20;;;;;;;;;;;27.60;49.20;;;;;;5061751;28;19990;-73
2023/06/09 14:13:48;;;;;;;;;;;27.70;49.00;;;;;;5062117;28;19928;-72
2023/06/09 14:16:14;;;;;;;;;;;27.70;48.50;;;;;;5063546;28;20334;-73
2023/06/09 14:18:41;;;;;;;;;;;27.80;48.40;;;;;;5067971;28;19986;-73